Time;durP1;ratioP1;P1;durP2;ratioP2;P2;SDS_P1;SDS_P2;PMS_P1;PMS_P2;Temp;Humidity;BMP_temperature;BMP_pressure;BME280_temperature;BME280_humidity;BME280_pressure;Samples;Min_cycle;Max_cycle;Signal;HPM_P1;HPM_P2
2023/03/19 00:02:02;;;;;;;5.00;3.53;;;9.60;99.90;;;;;;5051852;28;20575;-82
2023/03/19 00:04:27;;;;;;;2.05;1.92;;;9.50;99.90;;;;;;5052228;28;20052;-83
2023/03/19 00:06:53;;;;;;;3.08;1.92;;;9.60;99.90;;;;;;5050184;28;20052;-83
2023/03/19 00:09:20;;;;;;;0.93;0.85;;;9.50;99.90;;;;;;5056516;28;20037;-83
2023/03/19 00:11:47;;;;;;;1.20;1.10;;;9.40;99.90;;;;;;5072245;28;20048;-83
2023/03/19 00:14:13;;;;;;;2.45;2.25;;;9.40;99.90;;;;;;5072934;28;20079;-83
2023/03/19 00:16:40;;;;;;;3.80;1.63;;;9.40;99.90;;;;;;5056001;28;20037;-83
2023/03/19 00:19:07;;;;;;;3.42;1.42;;;9.40;99.90;;;;;;5061061;28;20067;-82
2023/03/19 00:21:33;;;;;;;1.58;1.33;;;9.30;99.90;;;;;;5057151;28;20431;-82
2023/03/19 00:24:01;;;;;;;3.15;2.42;;;9.30;99.90;;;;;;5057444;28;20056;-83
2023/03/19 00:26:35;;;;;;;1.92;1.58;;;9.30;99.90;;;;;;5057247;28;20056;-82
2023/03/19 00:29:01;;;;;;;2.35;2.03;;;9.30;99.90;;;;;;5058716;28;20152;-82
2023/03/19 00:31:28;;;;;;;0.50;0.50;;;9.30;99.90;;;;;;5058628;28;20077;-83
2023/03/19 00:33:56;;;;;;;2.50;1.63;;;9.40;99.90;;;;;;5056295;28;20048;-82
2023/03/19 00:36:24;;;;;;;2.65;2.03;;;9.90;99.90;;;;;;5055975;28;20048;-82
2023/03/19 00:38:50;;;;;;;2.53;1.85;;;9.40;99.90;;;;;;5057353;28;20056;-82
2023/03/19 00:41:17;;;;;;;0.90;0.63;;;9.40;99.90;;;;;;5076395;28;20151;-82
2023/03/19 00:43:43;;;;;;;0.85;0.85;;;9.50;99.90;;;;;;5076214;28;20064;-83
2023/03/19 00:46:10;;;;;;;0.43;0.43;;;9.50;99.90;;;;;;5076744;28;20093;-82
2023/03/19 00:48:35;;;;;;;5.20;0.70;;;9.50;99.90;;;;;;5076671;28;20169;-82
2023/03/19 00:51:07;;;;;;;1.95;1.15;;;9.60;99.90;;;;;;5059119;28;20041;-83
2023/03/19 00:53:37;;;;;;;1.30;1.00;;;9.50;99.90;;;;;;5055999;28;20048;-83
2023/03/19 00:56:03;;;;;;;1.67;1.48;;;9.50;99.90;;;;;;5054858;28;20103;-83
2023/03/19 00:58:28;;;;;;;0.40;0.40;;;9.50;99.90;;;;;;5055277;28;20053;-83
2023/03/19 01:00:54;;;;;;;0.35;0.35;;;9.50;99.90;;;;;;5071260;28;20185;-83
2023/03/19 01:03:20;;;;;;;0.65;0.38;;;9.60;99.90;;;;;;5069610;28;20045;-82
2023/03/19 01:05:49;;;;;;;1.27;1.17;;;9.60;99.90;;;;;;5056465;28;20044;-82
2023/03/19 01:08:16;;;;;;;2.88;1.52;;;9.60;99.90;;;;;;5054962;28;20495;-82
2023/03/19 01:10:43;;;;;;;1.33;0.55;;;9.70;99.90;;;;;;5068301;28;20281;-82
2023/03/19 01:13:09;;;;;;;2.10;1.20;;;9.70;99.90;;;;;;5076189;28;20044;-82
2023/03/19 01:15:36;;;;;;;4.07;1.27;;;9.80;99.90;;;;;;5075675;28;20502;-83
2023/03/19 01:18:02;;;;;;;0.75;0.73;;;9.70;99.90;;;;;;5076320;28;20044;-82
2023/03/19 01:20:28;;;;;;;1.75;1.27;;;9.70;99.90;;;;;;5063222;28;20076;-81
2023/03/19 01:22:54;;;;;;;1.08;0.93;;;9.70;99.90;;;;;;5056423;28;20041;-82
2023/03/19 01:25:20;;;;;;;0.82;0.75;;;9.80;99.90;;;;;;5054925;28;20051;-82
2023/03/19 01:27:46;;;;;;;6.47;2.72;;;10.50;99.90;;;;;;5055471;28;20049;-82
2023/03/19 01:30:13;;;;;;;1.27;1.17;;;9.80;99.90;;;;;;5054787;28;20044;-82
2023/03/19 01:32:39;;;;;;;1.15;0.85;;;9.90;99.90;;;;;;5055109;28;20434;-82
2023/03/19 01:35:05;;;;;;;1.83;0.90;;;9.80;99.90;;;;;;5054715;28;20076;-82
2023/03/19 01:37:31;;;;;;;1.98;1.52;;;9.90;99.90;;;;;;5071321;28;20462;-82
2023/03/19 01:39:57;;;;;;;0.60;0.60;;;9.80;99.90;;;;;;5074807;28;20418;-82
2023/03/19 01:42:23;;;;;;;2.55;1.48;;;9.80;99.90;;;;;;5073459;28;20093;-82
2023/03/19 01:44:49;;;;;;;1.45;1.05;;;9.90;99.90;;;;;;5075014;28;20490;-82
2023/03/19 01:47:27;;;;;;;1.60;1.30;;;9.90;99.90;;;;;;5074244;28;20141;-82
2023/03/19 01:49:54;;;;;;;0.52;0.52;;;10.50;99.90;;;;;;5069985;28;20060;-83
2023/03/19 01:52:22;;;;;;;1.70;1.52;;;9.80;99.90;;;;;;5056055;28;20517;-82
2023/03/19 01:54:49;;;;;;;1.88;1.17;;;9.90;99.90;;;;;;5056172;28;20052;-82
2023/03/19 01:57:16;;;;;;;3.30;1.50;;;9.90;99.90;;;;;;5067997;28;20056;-82
2023/03/19 01:59:49;;;;;;;2.47;1.33;;;9.80;99.90;;;;;;5074171;28;20047;-82
2023/03/19 02:02:30;;;;;;;1.00;0.75;;;9.80;99.90;;;;;;5075044;28;20064;-82
2023/03/19 02:05:07;;;;;;;1.08;0.98;;;9.80;99.90;;;;;;5074871;28;20476;-83
2023/03/19 02:07:35;;;;;;;0.75;0.73;;;9.80;99.90;;;;;;5075262;28;20045;-83
2023/03/19 02:10:06;;;;;;;0.63;0.63;;;9.70;99.90;;;;;;5074503;28;20068;-83
2023/03/19 02:12:32;;;;;;;1.63;0.93;;;9.70;99.90;;;;;;5074276;28;20053;-83
2023/03/19 02:14:58;;;;;;;1.02;0.68;;;9.70;99.90;;;;;;5072667;28;20052;-83
2023/03/19 02:17:25;;;;;;;1.35;1.25;;;9.70;99.90;;;;;;5047923;28;20049;-83
2023/03/19 02:20:07;;;;;;;0.95;0.93;;;10.50;99.90;;;;;;5049684;28;20352;-84
2023/03/19 02:22:36;;;;;;;0.30;0.30;;;9.70;99.90;;;;;;5067422;28;20517;-83
2023/03/19 02:25:08;;;;;;;1.77;1.45;;;9.70;99.90;;;;;;5066462;28;20052;-84
2023/03/19 02:27:34;;;;;;;1.25;0.52;;;9.70;99.90;;;;;;5066065;28;20048;-84
2023/03/19 02:30:15;;;;;;;4.35;2.90;;;9.60;99.90;;;;;;5066886;28;20110;-84
2023/03/19 02:32:41;;;;;;;1.65;1.38;;;9.60;99.90;;;;;;5067794;28;20040;-83
2023/03/19 02:35:08;;;;;;;1.10;1.02;;;9.60;99.90;;;;;;5066887;28;20108;-83
2023/03/19 02:37:34;;;;;;;1.00;0.88;;;9.60;99.90;;;;;;5068578;28;20052;-84
2023/03/19 02:40:10;;;;;;;0.43;0.43;;;9.50;99.90;;;;;;5062080;28;20045;-83
2023/03/19 02:42:36;;;;;;;0.65;0.65;;;9.50;99.90;;;;;;5048785;28;20075;-84
2023/03/19 02:45:02;;;;;;;1.65;1.08;;;9.50;99.90;;;;;;5048894;28;20597;-84
2023/03/19 02:47:28;;;;;;;0.93;0.85;;;9.50;99.90;;;;;;5060722;28;20055;-84
2023/03/19 02:49:54;;;;;;;4.20;1.42;;;9.50;99.90;;;;;;5067333;28;20040;-84
2023/03/19 02:52:20;;;;;;;1.52;1.42;;;9.40;99.90;;;;;;5068793;28;20394;-84
2023/03/19 02:54:45;;;;;;;1.38;0.82;;;9.40;99.90;;;;;;5069079;28;20048;-84
2023/03/19 02:57:11;;;;;;;0.15;0.15;;;9.40;99.90;;;;;;5068670;28;20048;-84
2023/03/19 02:59:37;;;;;;;2.53;1.23;;;9.90;99.90;;;;;;5068248;28;20127;-83
2023/03/19 03:02:04;;;;;;;2.85;1.20;;;9.30;99.90;;;;;;5068363;28;20055;-84
2023/03/19 03:04:31;;;;;;;0.10;0.10;;;9.30;99.90;;;;;;5067299;28;20044;-84
2023/03/19 03:06:56;;;;;;;1.08;1.02;;;9.30;99.90;;;;;;5064414;28;20636;-83
2023/03/19 03:09:22;;;;;;;0.75;0.73;;;9.30;99.90;;;;;;5045737;28;20080;-84
2023/03/19 03:11:48;;;;;;;1.60;1.13;;;9.40;99.90;;;;;;5045359;28;20415;-84
2023/03/19 03:14:14;;;;;;;2.58;1.27;;;9.40;99.90;;;;;;5045620;28;20045;-83
2023/03/19 03:16:40;;;;;;;0.82;0.82;;;9.40;99.90;;;;;;5048439;28;20028;-85
2023/03/19 03:19:05;;;;;;;0.00;0.00;;;9.40;99.90;;;;;;5064250;28;20082;-85
2023/03/19 03:21:32;;;;;;;1.23;0.90;;;9.40;99.90;;;;;;5064547;28;20524;-84
2023/03/19 03:23:58;;;;;;;0.55;0.55;;;9.40;99.90;;;;;;5065489;28;20055;-84
2023/03/19 03:26:24;;;;;;;0.88;0.73;;;9.40;99.90;;;;;;5063878;28;20048;-84
2023/03/19 03:28:50;;;;;;;1.35;0.65;;;9.30;99.90;;;;;;5065413;28;20045;-84
2023/03/19 03:31:16;;;;;;;0.35;0.20;;;9.30;99.90;;;;;;5065154;28;20048;-84
2023/03/19 03:33:42;;;;;;;0.22;0.22;;;9.30;99.90;;;;;;5066480;28;20490;-83
2023/03/19 03:36:08;;;;;;;0.32;0.20;;;9.30;99.90;;;;;;5066358;28;20055;-84
2023/03/19 03:38:33;;;;;;;0.65;0.65;;;9.20;99.90;;;;;;5047565;28;20077;-84
2023/03/19 03:40:59;;;;;;;1.13;1.02;;;9.20;99.90;;;;;;5065493;28;20032;-84
2023/03/19 03:43:26;;;;;;;2.35;2.08;;;9.20;99.90;;;;;;5069644;28;20052;-83
2023/03/19 03:45:53;;;;;;;0.95;0.70;;;9.20;99.90;;;;;;5071785;28;20055;-83
2023/03/19 03:48:19;;;;;;;0.38;0.38;;;9.20;99.90;;;;;;5055482;28;20092;-85
2023/03/19 03:50:45;;;;;;;0.75;0.75;;;9.10;99.90;;;;;;5053518;28;20083;-84
2023/03/19 03:53:11;;;;;;;0.85;0.40;;;10.20;99.90;;;;;;5053281;28;20048;-83
2023/03/19 03:55:38;;;;;;;1.25;0.35;;;9.20;99.90;;;;;;5053864;28;20084;-83
2023/03/19 03:58:03;;;;;;;1.23;0.75;;;9.20;99.90;;;;;;5054016;28;20071;-83
2023/03/19 04:00:30;;;;;;;2.15;1.52;;;9.20;99.90;;;;;;5053405;28;20053;-83
2023/03/19 04:02:55;;;;;;;1.40;0.60;;;9.20;99.90;;;;;;5053328;28;20037;-83
2023/03/19 04:05:21;;;;;;;4.70;0.88;;;9.20;99.90;;;;;;5053360;28;20049;-83
2023/03/19 04:07:47;;;;;;;0.95;0.80;;;9.20;99.90;;;;;;5053726;28;20054;-83
2023/03/19 04:10:14;;;;;;;2.35;0.65;;;9.10;99.90;;;;;;5053843;28;20506;-83
2023/03/19 04:12:40;;;;;;;3.03;1.60;;;9.10;99.90;;;;;;5052075;28;20057;-82
2023/03/19 04:15:09;;;;;;;0.60;0.57;;;9.10;99.90;;;;;;5053872;28;20049;-83
2023/03/19 04:17:35;;;;;;;1.45;1.15;;;9.10;99.90;;;;;;5063971;28;20050;-83
2023/03/19 04:20:03;;;;;;;0.88;0.65;;;9.00;99.90;;;;;;5073782;28;20068;-83
2023/03/19 04:22:30;;;;;;;1.95;0.80;;;9.00;99.90;;;;;;5074057;28;20588;-83
2023/03/19 04:24:56;;;;;;;2.65;1.30;;;9.00;99.90;;;;;;5074007;28;20078;-83
2023/03/19 04:27:22;;;;;;;1.45;1.10;;;9.10;99.90;;;;;;5072413;28;20105;-83
2023/03/19 04:29:48;;;;;;;1.58;0.93;;;9.10;99.90;;;;;;5072303;28;20119;-83
2023/03/19 04:32:14;;;;;;;1.25;1.15;;;9.10;99.90;;;;;;5072556;28;20064;-84
2023/03/19 04:34:40;;;;;;;1.30;0.85;;;9.10;99.90;;;;;;5072634;28;20048;-83
2023/03/19 04:37:09;;;;;;;0.65;0.40;;;9.10;99.90;;;;;;5056921;28;20055;-84
2023/03/19 04:39:35;;;;;;;0.75;0.73;;;9.10;99.90;;;;;;5065928;28;20041;-83
2023/03/19 04:42:01;;;;;;;0.20;0.20;;;9.10;99.90;;;;;;5051820;28;20102;-84
2023/03/19 04:44:27;;;;;;;1.30;1.05;;;9.10;99.90;;;;;;5052939;28;20045;-83
2023/03/19 04:46:53;;;;;;;1.17;0.68;;;9.10;99.90;;;;;;5053237;28;20048;-83
2023/03/19 04:49:19;;;;;;;0.25;0.25;;;9.20;99.90;;;;;;5053742;28;20060;-83
2023/03/19 04:51:45;;;;;;;1.25;0.52;;;9.20;99.90;;;;;;5053668;28;20517;-83
2023/03/19 04:54:11;;;;;;;2.90;0.98;;;9.20;99.90;;;;;;5052682;28;20049;-83
2023/03/19 04:56:37;;;;;;;0.25;0.25;;;9.10;99.90;;;;;;5052963;28;20437;-83
2023/03/19 04:59:03;;;;;;;1.65;1.00;;;9.10;99.90;;;;;;5056309;28;20048;-83
2023/03/19 05:01:30;;;;;;;0.22;0.22;;;9.10;99.90;;;;;;5056809;28;20048;-83
2023/03/19 05:03:55;;;;;;;1.25;0.45;;;9.00;99.90;;;;;;5057250;28;20108;-83
2023/03/19 05:06:21;;;;;;;0.63;0.63;;;8.90;99.90;;;;;;5056991;28;20124;-83
2023/03/19 05:08:47;;;;;;;1.05;0.77;;;8.70;99.90;;;;;;5075728;28;20102;-83
2023/03/19 05:11:13;;;;;;;2.00;1.02;;;8.50;99.90;;;;;;5076462;28;20048;-83
2023/03/19 05:13:39;;;;;;;1.63;1.17;;;8.40;99.90;;;;;;5077116;28;20055;-83
2023/03/19 05:16:05;;;;;;;2.60;0.82;;;8.30;99.90;;;;;;5076298;28;20063;-83
2023/03/19 05:18:32;;;;;;;0.70;0.57;;;8.30;99.90;;;;;;5076300;28;20044;-83
2023/03/19 05:20:58;;;;;;;0.38;0.35;;;8.20;99.90;;;;;;5077187;28;20072;-83
2023/03/19 05:23:23;;;;;;;0.70;0.70;;;8.10;99.90;;;;;;5077202;28;20048;-82
2023/03/19 05:25:49;;;;;;;0.30;0.30;;;8.10;99.90;;;;;;5076558;28;20055;-83
2023/03/19 05:28:15;;;;;;;0.45;0.45;;;9.30;99.90;;;;;;5076316;28;20064;-83
2023/03/19 05:30:42;;;;;;;1.25;1.15;;;7.90;99.90;;;;;;5076184;28;20126;-83
2023/03/19 05:33:08;;;;;;;0.38;0.35;;;7.80;99.90;;;;;;5075034;28;20060;-83
2023/03/19 05:35:34;;;;;;;0.52;0.52;;;7.80;99.90;;;;;;5057790;28;20056;-82
2023/03/19 05:38:00;;;;;;;0.40;0.40;;;7.70;99.90;;;;;;5056768;28;20161;-83
2023/03/19 05:40:26;;;;;;;1.02;0.55;;;7.70;99.90;;;;;;5056744;28;20041;-82
2023/03/19 05:42:51;;;;;;;0.52;0.52;;;7.60;99.90;;;;;;5055778;28;20806;-83
2023/03/19 05:45:18;;;;;;;0.35;0.35;;;7.60;99.90;;;;;;5055927;28;20116;-82
2023/03/19 05:47:47;;;;;;;1.98;1.10;;;7.50;99.90;;;;;;5056122;28;20123;-83
2023/03/19 05:50:13;;;;;;;0.20;0.20;;;7.50;99.90;;;;;;5057082;28;20178;-82
2023/03/19 05:52:39;;;;;;;0.32;0.32;;;7.50;99.90;;;;;;5057084;28;20049;-83
2023/03/19 05:55:05;;;;;;;6.45;0.75;;;7.60;99.90;;;;;;5056532;28;20052;-83
2023/03/19 05:57:31;;;;;;;0.47;0.47;;;7.60;99.90;;;;;;5063579;28;20051;-82
2023/03/19 05:59:57;;;;;;;0.20;0.20;;;7.60;99.90;;;;;;5076081;28;20524;-83
2023/03/19 06:02:23;;;;;;;0.60;0.60;;;7.60;99.90;;;;;;5076019;28;20090;-82
2023/03/19 06:04:49;;;;;;;0.77;0.77;;;7.60;99.90;;;;;;5075201;28;20083;-82
2023/03/19 06:07:14;;;;;;;0.25;0.25;;;7.50;99.90;;;;;;5073801;28;20040;-83
2023/03/19 06:09:40;;;;;;;0.05;0.05;;;7.50;99.90;;;;;;5073453;28;20048;-83
2023/03/19 06:12:07;;;;;;;0.13;0.13;;;7.50;99.90;;;;;;5073879;28;20086;-83
2023/03/19 06:14:33;;;;;;;0.30;0.30;;;7.50;99.90;;;;;;5063505;28;20045;-82
2023/03/19 06:16:58;;;;;;;0.63;0.55;;;6.90;99.90;;;;;;5055405;28;20073;-83
2023/03/19 06:19:24;;;;;;;0.47;0.47;;;7.50;99.90;;;;;;5055187;28;20132;-82
2023/03/19 06:21:51;;;;;;;0.73;0.65;;;7.50;99.90;;;;;;5054844;28;20487;-83
2023/03/19 06:24:17;;;;;;;0.65;0.65;;;7.40;99.90;;;;;;5055042;28;20102;-83
2023/03/19 06:26:43;;;;;;;0.05;0.05;;;7.40;99.90;;;;;;5052791;28;20053;-83
2023/03/19 06:29:09;;;;;;;1.13;0.40;;;7.40;99.90;;;;;;5069570;28;20040;-83
2023/03/19 06:31:38;;;;;;;0.20;0.20;;;7.40;99.90;;;;;;5074988;28;20051;-82
2023/03/19 06:34:04;;;;;;;0.00;0.00;;;7.50;99.90;;;;;;5075554;28;20048;-83
2023/03/19 06:36:29;;;;;;;2.38;1.58;;;8.20;99.90;;;;;;5075064;28;20083;-82
2023/03/19 06:38:55;;;;;;;0.70;0.63;;;7.60;99.90;;;;;;5074784;28;20044;-83
2023/03/19 06:41:21;;;;;;;2.85;0.50;;;7.60;99.90;;;;;;5075088;28;20146;-82
2023/03/19 06:43:47;;;;;;;0.00;0.00;;;7.80;99.90;;;;;;5074288;28;20052;-82
2023/03/19 06:46:12;;;;;;;0.15;0.15;;;8.00;99.90;;;;;;5073336;28;20056;-83
2023/03/19 06:48:38;;;;;;;0.22;0.20;;;8.30;99.90;;;;;;5073425;28;20045;-83
2023/03/19 06:51:04;;;;;;;0.15;0.15;;;8.50;99.90;;;;;;5074216;28;20037;-83
2023/03/19 06:53:30;;;;;;;0.68;0.68;;;8.60;99.90;;;;;;5073660;28;20048;-82
2023/03/19 06:55:55;;;;;;;0.32;0.30;;;9.50;99.90;;;;;;5073220;28;20059;-82
2023/03/19 06:58:21;;;;;;;0.10;0.10;;;8.60;99.90;;;;;;5061363;28;20491;-83
2023/03/19 07:00:47;;;;;;;0.63;0.55;;;8.60;99.90;;;;;;5053523;28;20045;-82
2023/03/19 07:03:12;;;;;;;1.23;1.15;;;8.60;99.90;;;;;;5053470;28;20644;-82
2023/03/19 07:05:38;;;;;;;0.60;0.50;;;8.50;99.90;;;;;;5052957;28;20075;-82
2023/03/19 07:08:10;;;;;;;0.25;0.15;;;8.80;99.90;;;;;;5052308;28;20182;-83
2023/03/19 07:10:36;;;;;;;0.05;0.05;;;8.40;99.90;;;;;;5053346;28;20056;-83
2023/03/19 07:13:03;;;;;;;0.65;0.50;;;8.50;99.90;;;;;;5053185;28;20041;-82
2023/03/19 07:15:28;;;;;;;0.38;0.38;;;8.60;99.90;;;;;;5053445;28;20422;-82
2023/03/19 07:17:54;;;;;;;0.52;0.45;;;8.60;99.90;;;;;;5062027;28;20040;-83
2023/03/19 07:20:20;;;;;;;0.20;0.20;;;8.60;99.90;;;;;;5074008;28;20479;-84
2023/03/19 07:22:45;;;;;;;0.32;0.28;;;8.70;99.90;;;;;;5068597;28;20048;-82
2023/03/19 07:25:11;;;;;;;1.80;0.57;;;8.70;99.90;;;;;;5072804;28;20076;-83
2023/03/19 07:27:37;;;;;;;0.03;0.03;;;8.80;99.90;;;;;;5073139;28;20040;-83
2023/03/19 07:30:03;;;;;;;0.52;0.45;;;8.90;99.90;;;;;;5073776;28;20063;-83
2023/03/19 07:32:28;;;;;;;1.10;1.00;;;9.00;99.90;;;;;;5072217;28;20094;-83
2023/03/19 07:34:54;;;;;;;1.77;1.38;;;9.00;99.90;;;;;;5074628;28;20083;-82
2023/03/19 07:37:20;;;;;;;0.55;0.55;;;9.10;99.90;;;;;;5072688;28;20048;-82
2023/03/19 07:39:45;;;;;;;0.10;0.10;;;9.10;99.90;;;;;;5055489;28;20063;-83
2023/03/19 07:42:11;;;;;;;0.75;0.55;;;9.20;99.90;;;;;;5053447;28;20045;-83
2023/03/19 07:44:37;;;;;;;0.20;0.20;;;9.30;99.90;;;;;;5054390;28;20060;-82
2023/03/19 07:47:02;;;;;;;0.10;0.10;;;10.30;99.90;;;;;;5051792;28;20060;-82
2023/03/19 07:49:28;;;;;;;1.35;1.13;;;9.40;99.90;;;;;;5072109;28;20082;-82
2023/03/19 07:51:54;;;;;;;1.15;0.38;;;9.50;99.90;;;;;;5074277;28;20098;-84
2023/03/19 07:54:20;;;;;;;0.77;0.65;;;9.60;99.90;;;;;;5071944;28;20121;-82
2023/03/19 07:56:46;;;;;;;0.15;0.15;;;9.60;99.90;;;;;;5070070;28;20063;-82
2023/03/19 07:59:11;;;;;;;0.20;0.20;;;9.70;99.90;;;;;;5069460;28;20044;-83
2023/03/19 08:01:37;;;;;;;1.17;1.08;;;9.70;99.90;;;;;;5069139;28;20048;-83
2023/03/19 08:04:02;;;;;;;1.67;0.60;;;9.70;99.90;;;;;;5069847;28;20124;-83
2023/03/19 08:06:28;;;;;;;2.80;0.93;;;9.70;99.90;;;;;;5069629;28;20040;-83
2023/03/19 08:08:54;;;;;;;1.90;1.17;;;9.80;99.90;;;;;;5064811;28;20533;-83
2023/03/19 08:11:21;;;;;;;0.25;0.25;;;9.90;99.90;;;;;;5064288;28;20056;-83
2023/03/19 08:13:46;;;;;;;1.35;0.95;;;10.00;99.90;;;;;;5064181;28;20093;-83
2023/03/19 08:16:12;;;;;;;1.98;1.13;;;10.30;99.90;;;;;;5047974;28;20044;-83
2023/03/19 08:18:38;;;;;;;0.70;0.60;;;10.60;99.90;;;;;;5053217;28;20347;-83
2023/03/19 08:21:04;;;;;;;1.17;0.93;;;10.90;99.90;;;;;;5046615;28;20613;-83
2023/03/19 08:23:29;;;;;;;0.65;0.63;;;11.20;99.90;;;;;;5048551;28;20436;-83
2023/03/19 08:25:55;;;;;;;1.05;0.68;;;11.30;99.90;;;;;;5046458;28;20057;-83
2023/03/19 08:28:22;;;;;;;1.27;0.88;;;11.40;99.90;;;;;;5046022;28;20041;-83
2023/03/19 08:30:48;;;;;;;3.33;1.40;;;11.40;99.90;;;;;;5045966;28;20480;-83
2023/03/19 08:33:14;;;;;;;1.13;1.02;;;12.10;99.90;;;;;;5047894;28;20048;-83
2023/03/19 08:35:40;;;;;;;0.93;0.70;;;12.00;99.90;;;;;;5055152;28;20142;-83
2023/03/19 08:38:06;;;;;;;0.25;0.25;;;11.50;99.90;;;;;;5060881;28;20510;-83
2023/03/19 08:40:32;;;;;;;1.42;1.05;;;11.30;99.90;;;;;;5061872;28;20091;-83
2023/03/19 08:42:58;;;;;;;0.32;0.32;;;11.80;1.00;;;;;;5047669;28;20478;-83
2023/03/19 08:45:24;;;;;;;1.00;0.55;;;10.90;49.30;;;;;;5045012;28;20049;-83
2023/03/19 08:47:50;;;;;;;0.88;0.85;;;10.80;99.90;;;;;;5064165;28;20049;-83
2023/03/19 08:50:17;;;;;;;0.55;0.45;;;11.00;99.90;;;;;;5070360;28;20037;-83
2023/03/19 08:52:42;;;;;;;0.13;0.13;;;11.30;99.90;;;;;;5069922;28;20079;-83
2023/03/19 08:55:09;;;;;;;0.25;0.22;;;11.60;94.40;;;;;;5070859;28;20087;-83
2023/03/19 08:57:35;;;;;;;0.17;0.15;;;11.90;99.90;;;;;;5058386;28;20049;-83
2023/03/19 09:00:05;;;;;;;0.57;0.55;;;12.50;99.90;;;;;;5051023;28;20059;-83
2023/03/19 09:02:31;;;;;;;2.08;1.08;;;12.00;6.00;;;;;;5049642;28;20384;-83
2023/03/19 09:04:56;;;;;;;0.88;0.77;;;12.10;1.00;;;;;;5048538;28;20052;-83
2023/03/19 09:07:22;;;;;;;0.10;0.10;;;12.20;99.90;;;;;;5057501;28;20056;-83
2023/03/19 09:09:48;;;;;;;0.85;0.50;;;12.20;99.90;;;;;;5067383;28;20048;-83
2023/03/19 09:12:15;;;;;;;0.43;0.32;;;12.20;1.00;;;;;;5049322;28;20036;-83
2023/03/19 09:14:42;;;;;;;2.53;0.68;;;12.90;99.90;;;;;;5050287;28;20049;-83
2023/03/19 09:17:08;;;;;;;0.47;0.47;;;12.30;99.90;;;;;;5050580;28;20112;-83
2023/03/19 09:19:35;;;;;;;0.88;0.60;;;12.60;99.90;;;;;;5050411;28;20052;-83
2023/03/19 09:22:02;;;;;;;1.00;0.75;;;12.50;99.90;;;;;;5050423;28;20514;-83
2023/03/19 09:24:28;;;;;;;0.17;0.17;;;12.20;99.90;;;;;;5051107;28;20447;-83
2023/03/19 09:26:54;;;;;;;0.25;0.22;;;12.80;1.00;;;;;;5055021;28;20041;-83
2023/03/19 09:29:20;;;;;;;0.63;0.60;;;13.10;1.00;;;;;;5070024;28;20387;-83
2023/03/19 09:31:45;;;;;;;1.20;1.02;;;13.40;99.90;;;;;;5070889;28;20050;-83
2023/03/19 09:34:12;;;;;;;0.40;0.40;;;14.70;99.90;;;;;;5070109;28;20048;-83
2023/03/19 09:36:39;;;;;;;0.08;0.00;;;15.30;1.00;;;;;;5069588;28;20056;-83
2023/03/19 09:39:06;;;;;;;3.47;1.23;;;15.00;99.90;;;;;;5069314;28;20091;-83
2023/03/19 09:42:06;;;;;;;0.95;0.47;;;14.60;99.90;;;;;;5071327;28;20044;-83
2023/03/19 09:44:38;;;;;;;0.63;0.17;;;14.20;99.90;;;;;;5066560;28;20083;-87
2023/03/19 09:47:18;;;;;;;0.28;0.22;;;13.90;99.90;;;;;;5066108;28;20063;-87
2023/03/19 09:49:47;;;;;;;0.85;0.75;;;13.80;99.90;;;;;;5063581;28;20144;-87
2023/03/19 09:52:33;;;;;;;0.77;0.43;;;13.90;1.00;;;;;;5064266;28;20102;-87
2023/03/19 09:55:18;;;;;;;0.75;0.47;;;14.00;1.00;;;;;;5063073;28;20387;-88
2023/03/19 09:57:44;;;;;;;0.63;0.38;;;14.00;1.00;;;;;;5052577;28;20049;-87
2023/03/19 10:00:21;;;;;;;2.25;1.25;;;14.00;1.00;;;;;;5042916;28;20123;-86
2023/03/19 10:03:04;;;;;;;0.45;0.40;;;14.10;1.00;;;;;;5041767;28;20056;-86
2023/03/19 10:06:00;;;;;;;5.25;1.38;;;14.30;99.90;;;;;;5042723;28;20051;-87
2023/03/19 10:08:45;;;;;;;0.60;0.40;;;14.70;99.90;;;;;;5041737;28;20337;-86
2023/03/19 10:11:32;;;;;;;1.98;1.30;;;14.70;99.90;;;;;;5040202;28;20060;-87
2023/03/19 10:14:41;;;;;;;0.52;0.52;;;14.80;99.90;;;;;;5040443;28;20253;-86
2023/03/19 10:17:15;;;;;;;0.60;0.50;;;14.90;99.90;;;;;;5046036;28;20092;-82
2023/03/19 10:20:02;;;;;;;0.63;0.38;;;14.90;99.90;;;;;;5051078;28;20668;-83
2023/03/19 10:22:45;;;;;;;0.50;0.43;;;14.80;99.90;;;;;;5049341;28;20458;-82
2023/03/19 10:25:17;;;;;;;0.90;0.73;;;14.70;99.90;;;;;;5046380;28;20041;-79
2023/03/19 10:27:45;;;;;;;1.10;0.95;;;14.60;57.90;;;;;;5043345;28;20544;-81
2023/03/19 10:30:16;;;;;;;0.75;0.55;;;14.50;84.30;;;;;;5047624;28;20053;-80
2023/03/19 10:32:44;;;;;;;1.77;0.38;;;14.50;99.90;;;;;;5050808;28;20105;-82
2023/03/19 10:35:26;;;;;;;0.30;0.30;;;15.00;97.00;;;;;;5048041;28;20041;-82
2023/03/19 10:37:54;;;;;;;1.75;0.55;;;14.40;91.40;;;;;;5047170;28;20071;-82
2023/03/19 10:40:34;;;;;;;2.17;1.08;;;14.30;99.90;;;;;;5048029;28;20040;-82
2023/03/19 10:43:17;;;;;;;0.75;0.55;;;14.40;21.50;;;;;;5046807;28;20107;-82
2023/03/19 10:45:43;;;;;;;0.65;0.43;;;14.40;94.30;;;;;;5047715;28;20538;-82
2023/03/19 10:48:14;;;;;;;0.90;0.65;;;14.50;95.40;;;;;;5047519;28;20067;-82
2023/03/19 10:50:59;;;;;;;0.45;0.45;;;14.50;72.30;;;;;;5047409;28;20155;-82
2023/03/19 10:53:38;;;;;;;0.17;0.17;;;14.50;86.20;;;;;;5048339;28;20061;-82
2023/03/19 10:56:19;;;;;;;0.50;0.50;;;14.60;99.90;;;;;;5047302;28;20053;-82
2023/03/19 10:58:59;;;;;;;0.28;0.28;;;14.70;99.90;;;;;;5046962;28;20052;-82
2023/03/19 11:01:32;;;;;;;0.93;0.57;;;15.00;91.60;;;;;;5046251;28;20099;-82
2023/03/19 11:04:00;;;;;;;0.20;0.20;;;15.10;24.20;;;;;;5045537;28;20049;-82
2023/03/19 11:06:34;;;;;;;0.45;0.40;;;15.10;30.20;;;;;;5066366;28;20344;-82
2023/03/19 11:09:12;;;;;;;1.70;1.40;;;15.10;1.00;;;;;;5064846;28;20355;-82
2023/03/19 11:11:48;;;;;;;1.38;1.20;;;15.00;6.40;;;;;;5047375;28;20048;-82
2023/03/19 11:14:28;;;;;;;0.10;0.10;;;15.10;20.80;;;;;;5047449;28;20049;-82
2023/03/19 11:17:03;;;;;;;1.05;0.28;;;15.10;11.20;;;;;;5047541;28;20399;-82
2023/03/19 11:19:31;;;;;;;1.13;0.90;;;15.30;1.00;;;;;;5052151;28;20071;-82
2023/03/19 11:22:04;;;;;;;0.35;0.32;;;15.30;1.00;;;;;;5067152;28;20047;-82
2023/03/19 11:24:37;;;;;;;0.52;0.43;;;15.50;1.00;;;;;;5067248;28;20500;-82
2023/03/19 11:27:04;;;;;;;0.32;0.32;;;15.60;1.00;;;;;;5067157;28;20372;-82
2023/03/19 11:29:30;;;;;;;0.40;0.40;;;15.60;1.00;;;;;;5048887;28;20044;-82
2023/03/19 11:32:08;;;;;;;0.90;0.82;;;15.60;1.00;;;;;;5052290;28;20049;-82
2023/03/19 11:35:09;;;;;;;0.63;0.50;;;15.60;1.00;;;;;;5046819;28;20491;-82
2023/03/19 11:37:45;;;;;;;16.13;1.42;;;15.60;1.00;;;;;;5046879;28;20052;-82
2023/03/19 11:40:30;;;;;;;0.70;0.60;;;15.70;1.00;;;;;;5046532;28;20044;-82
2023/03/19 11:43:31;;;;;;;1.25;0.63;;;16.20;99.90;;;;;;5045730;28;20061;-82
2023/03/19 11:46:18;;;;;;;3.65;0.63;;;16.30;99.90;;;;;;5039928;28;20127;-82
2023/03/19 11:49:19;;;;;;;0.30;0.30;;;16.40;99.90;;;;;;5045486;28;20045;-82
2023/03/19 11:52:20;;;;;;;0.20;0.15;;;16.40;99.90;;;;;;5044672;28;20045;-82
2023/03/19 11:55:25;;;;;;;1.17;0.73;;;16.80;99.90;;;;;;5025195;28;20060;-82
2023/03/19 11:58:56;;;;;;;0.57;0.45;;;17.00;99.90;;;;;;5022209;28;20601;-83
2023/03/19 12:01:30;;;;;;;1.08;0.85;;;17.80;99.90;;;;;;5017756;28;20625;-82
2023/03/19 12:04:04;;;;;;;0.43;0.43;;;18.00;99.90;;;;;;5023189;28;20056;-82
2023/03/19 12:06:54;;;;;;;0.82;0.40;;;18.20;99.90;;;;;;5042844;28;20116;-82
2023/03/19 12:09:35;;;;;;;1.10;0.57;;;18.20;99.90;;;;;;5064318;28;20053;-82
2023/03/19 12:12:34;;;;;;;1.40;1.13;;;18.00;99.90;;;;;;5065833;28;20052;-82
2023/03/19 12:15:15;;;;;;;0.45;0.45;;;18.00;99.90;;;;;;5044527;28;20052;-82
2023/03/19 12:17:45;;;;;;;0.10;0.10;;;17.90;99.90;;;;;;5047232;28;20044;-82
2023/03/19 12:20:32;;;;;;;1.70;0.80;;;17.70;99.90;;;;;;5055232;28;20057;-82
2023/03/19 12:23:19;;;;;;;0.43;0.43;;;17.20;99.90;;;;;;5067930;28;20045;-81
2023/03/19 12:26:13;;;;;;;1.50;0.90;;;16.90;99.90;;;;;;5067984;28;20106;-82
2023/03/19 12:29:02;;;;;;;5.68;2.38;;;16.60;99.90;;;;;;5048993;28;20052;-82
2023/03/19 12:31:58;;;;;;;0.55;0.55;;;16.60;99.90;;;;;;5064827;28;20048;-82
2023/03/19 12:34:37;;;;;;;1.40;0.73;;;16.30;99.90;;;;;;5066565;28;20155;-82
2023/03/19 12:37:20;;;;;;;1.55;0.80;;;16.00;99.90;;;;;;5067776;28;20052;-82
2023/03/19 12:40:28;;;;;;;0.82;0.57;;;16.00;99.90;;;;;;5067103;28;20048;-82
2023/03/19 12:42:58;;;;;;;9.30;0.80;;;16.30;99.90;;;;;;5065781;28;20053;-82
2023/03/19 12:45:31;;;;;;;1.88;1.23;;;17.00;99.90;;;;;;5067499;28;20040;-82
2023/03/19 12:48:12;;;;;;;2.20;1.60;;;17.00;99.90;;;;;;5066061;28;20095;-82
2023/03/19 12:50:41;;;;;;;2.88;1.50;;;16.90;99.90;;;;;;5067730;28;20056;-82
2023/03/19 12:53:21;;;;;;;2.33;1.27;;;16.90;99.90;;;;;;5062328;28;20049;-82
2023/03/19 12:55:54;;;;;;;1.08;0.63;;;16.90;99.90;;;;;;5046998;28;20053;-82
2023/03/19 12:58:24;;;;;;;0.73;0.60;;;16.80;99.90;;;;;;5046710;28;20114;-82
2023/03/19 13:01:29;;;;;;;0.63;0.35;;;17.00;99.90;;;;;;5046276;28;20048;-82
2023/03/19 13:03:57;;;;;;;0.68;0.60;;;16.40;99.90;;;;;;5043291;28;20052;-82
2023/03/19 13:06:36;;;;;;;0.55;0.50;;;16.00;99.90;;;;;;5046158;28;20475;-82
2023/03/19 13:09:27;;;;;;;1.23;1.05;;;15.70;99.90;;;;;;5046991;28;20045;-82